Time;durP1;ratioP1;P1;durP2;ratioP2;P2;SDS_P1;SDS_P2;PMS_P1;PMS_P2;Temp;Humidity;BMP_temperature;BMP_pressure;BME280_temperature;BME280_humidity;BME280_pressure;Samples;Min_cycle;Max_cycle;Signal;HPM_P1;HPM_P2
2024/01/27 00:04:28;;;;;;;4.40;1.50;;;;;;;3.96;89.57;98854.41;434439;1256;95293;-38
2024/01/27 00:14:37;;;;;;;8.70;1.40;;;;;;;3.97;89.50;98867.58;434319;1254;95472;-39
2024/01/27 00:24:41;;;;;;;11.90;1.80;;;;;;;3.96;88.16;98878.84;434164;1254;108097;-39
2024/01/27 00:34:44;;;;;;;11.00;1.60;;;;;;;3.96;86.33;98893.16;434346;1256;96123;-39
2024/01/27 00:44:48;;;;;;;18.60;2.10;;;;;;;3.93;86.02;98914.63;434331;1259;108129;-39
2024/01/27 00:54:55;;;;;;;7.90;1.60;;;;;;;3.90;86.04;98939.21;434448;1259;95749;-39
2024/01/27 01:05:17;;;;;;;2.70;1.20;;;;;;;3.90;85.96;98949.48;434225;1259;96190;-39
2024/01/27 01:15:20;;;;;;;7.50;1.20;;;;;;;3.82;85.21;98946.10;434316;1255;107486;-39
2024/01/27 01:25:24;;;;;;;11.10;3.10;;;;;;;3.80;85.04;98951.39;434441;1254;96147;-39
2024/01/27 01:35:27;;;;;;;10.30;2.00;;;;;;;3.71;84.58;98959.44;434345;1259;96151;-38
2024/01/27 01:45:30;;;;;;;6.50;1.50;;;;;;;3.62;83.54;98973.92;434191;1259;96214;-38
2024/01/27 01:55:33;;;;;;;9.60;1.80;;;;;;;3.61;83.24;98974.51;434320;1254;108286;-38
2024/01/27 02:05:37;;;;;;;4.20;1.20;;;;;;;3.56;83.32;98982.55;434393;1259;95349;-38
2024/01/27 02:15:42;;;;;;;10.00;1.30;;;;;;;3.58;83.03;98989.15;434330;1259;97156;-39
2024/01/27 02:35:53;;;;;;;12.00;1.90;;;;;;;3.47;83.33;98996.50;434294;1259;108034;-39
2024/01/27 02:45:57;;;;;;;13.10;4.80;;;;;;;3.48;83.37;98996.03;434257;1259;96814;-39
2024/01/27 02:56:00;;;;;;;7.90;2.50;;;;;;;3.50;83.62;99004.23;434305;1259;109266;-39
2024/01/27 03:06:04;;;;;;;10.30;2.00;;;;;;;3.44;83.48;99023.92;434140;1259;108516;-41
2024/01/27 03:16:11;;;;;;;5.80;1.40;;;;;;;3.45;82.81;99032.14;434383;1259;96414;-39
2024/01/27 03:26:15;;;;;;;14.10;2.80;;;;;;;3.45;82.00;99045.57;434291;1259;109084;-39
2024/01/27 03:36:19;;;;;;;8.60;2.50;;;;;;;3.41;81.16;99052.23;434306;1259;96809;-39
2024/01/27 03:46:22;;;;;;;12.90;4.70;;;;;;;3.43;81.68;99061.50;434286;1257;96136;-39
2024/01/27 03:56:26;;;;;;;31.80;3.70;;;;;;;3.24;82.43;99069.02;434243;1259;108376;-38
2024/01/27 04:06:35;;;;;;;6.90;2.10;;;;;;;3.03;83.51;99081.11;434360;1257;96807;-39
2024/01/27 04:26:45;;;;;;;11.80;2.50;;;;;;;2.97;84.78;99088.59;434265;1259;110224;-39
2024/01/27 04:36:49;;;;;;;14.80;3.40;;;;;;;2.92;85.03;99102.14;434341;1259;108252;-37
2024/01/27 04:46:52;;;;;;;11.40;2.80;;;;;;;2.96;84.95;99110.44;434248;1259;95435;-39
2024/01/27 04:56:56;;;;;;;16.70;3.20;;;;;;;3.00;84.86;99122.50;434459;1259;95945;-39
2024/01/27 05:07:00;;;;;;;18.30;2.40;;;;;;;2.94;84.70;99113.41;434641;1259;96033;-39
2024/01/27 05:17:04;;;;;;;12.80;1.80;;;;;;;2.93;84.37;99112.90;434319;1259;107217;-38
2024/01/27 05:27:07;;;;;;;10.50;2.50;;;;;;;2.96;83.98;99119.52;434200;1259;96991;-38
2024/01/27 05:37:10;;;;;;;9.30;2.20;;;;;;;2.91;83.67;99115.16;434254;1259;95551;-38
2024/01/27 05:47:14;;;;;;;9.50;2.20;;;;;;;2.94;83.07;99109.15;434069;1259;108058;-39
2024/01/27 05:57:21;;;;;;;17.90;2.70;;;;;;;2.96;82.77;99121.64;434268;1259;96406;-37
2024/01/27 06:07:25;;;;;;;10.20;2.40;;;;;;;2.92;82.28;99129.60;434265;1259;109740;-40
2024/01/27 06:17:29;;;;;;;14.00;2.30;;;;;;;2.96;81.72;99140.58;434304;1259;95733;-38
2024/01/27 06:27:33;;;;;;;15.00;2.00;;;;;;;2.95;81.52;99141.01;434267;1259;95669;-39
2024/01/27 06:37:39;;;;;;;19.30;4.80;;;;;;;2.89;81.08;99146.59;434367;1259;95874;-39
2024/01/27 06:47:52;;;;;;;13.40;2.80;;;;;;;2.90;80.71;99150.95;434219;1255;107625;-39
2024/01/27 06:57:56;;;;;;;28.30;8.10;;;;;;;2.91;80.23;99153.49;434204;1259;95689;-40
2024/01/27 07:18:02;;;;;;;13.20;3.00;;;;;;;2.96;79.32;99177.55;434470;1254;108514;-38
2024/01/27 07:28:06;;;;;;;12.80;3.00;;;;;;;3.00;79.72;99184.22;434317;1260;95690;-38
2024/01/27 07:38:10;;;;;;;22.90;4.30;;;;;;;2.92;79.44;99169.42;434155;1259;96117;-40
2024/01/27 07:48:13;;;;;;;6.80;2.50;;;;;;;2.93;79.04;99173.17;434536;1259;108218;-39
2024/01/27 07:58:20;;;;;;;14.10;4.20;;;;;;;2.76;79.86;99189.79;434376;1259;95792;-38
2024/01/27 08:08:27;;;;;;;17.20;3.90;;;;;;;2.41;81.47;99193.92;434210;1259;96261;-41
2024/01/27 08:44:08;;;;;;;18.70;9.50;;;;;;;1.96;85.73;99191.17;433003;1264;95397;-38
2024/01/27 08:54:11;;;;;;;28.00;10.70;;;;;;;1.93;86.78;99190.84;433001;1260;95624;-39
2024/01/27 09:04:15;;;;;;;50.40;12.20;;;;;;;1.75;87.28;99194.73;432899;1264;108175;-40
2024/01/27 09:24:19;;;;;;;16.80;4.40;;;;;;;1.70;88.60;99207.67;432882;1264;108012;-39
2024/01/27 09:34:22;;;;;;;17.90;7.00;;;;;;;1.82;89.22;99203.77;432740;1263;95689;-39
2024/01/27 09:44:27;;;;;;;19.70;4.70;;;;;;;1.75;90.03;99209.28;432701;1263;96063;-39
2024/01/27 09:54:31;;;;;;;20.00;7.00;;;;;;;1.77;90.42;99223.92;432578;1264;96353;-40
2024/01/27 10:04:33;;;;;;;14.50;4.90;;;;;;;1.82;91.40;99222.52;432707;1260;110749;-38
2024/01/27 10:14:40;;;;;;;14.00;4.20;;;;;;;1.97;92.15;99220.48;433852;1261;96181;-38
2024/01/27 10:24:43;;;;;;;11.60;3.40;;;;;;;1.97;92.24;99229.74;433962;1260;109276;-39
2024/01/27 10:35:01;;;;;;;17.40;3.70;;;;;;;1.98;92.49;99235.51;433887;1261;109316;-40
2024/01/27 10:55:10;;;;;;;7.50;3.00;;;;;;;2.02;93.83;99249.86;433937;1256;107636;-40
2024/01/27 11:05:15;;;;;;;14.30;4.00;;;;;;;2.03;94.09;99259.84;434032;1262;96128;-38
2024/01/27 11:35:25;;;;;;;14.10;4.90;;;;;;;2.09;95.06;99294.52;434954;1259;107837;-39
2024/01/27 11:45:30;;;;;;;11.20;4.20;;;;;;;2.09;95.29;99300.08;434947;1253;96111;-39
2024/01/27 12:05:36;;;;;;;15.80;5.70;;;;;;;2.26;95.62;99317.42;434921;1256;96114;-38
2024/01/27 12:15:39;;;;;;;8.20;3.80;;;;;;;2.30;95.69;99331.62;434986;1253;95306;-39
2024/01/27 12:25:42;;;;;;;16.70;6.10;;;;;;;2.28;95.57;99348.25;435195;1253;108466;-39
2024/01/27 12:35:45;;;;;;;19.60;6.00;;;;;;;2.28;95.88;99360.88;434945;1257;95264;-39
2024/01/27 12:55:56;;;;;;;8.90;6.20;;;;;;;2.07;96.29;99391.27;434980;1258;109394;-39
2024/01/27 13:05:59;;;;;;;26.20;10.40;;;;;;;1.97;96.15;99411.98;435010;1253;95576;-39
2024/01/27 13:16:03;;;;;;;18.00;7.80;;;;;;;1.83;96.55;99424.13;435179;1253;95648;-39
2024/01/27 13:26:06;;;;;;;9.10;5.10;;;;;;;1.73;96.66;99440.11;434948;1253;109665;-39
2024/01/27 13:36:23;;;;;;;19.10;6.80;;;;;;;1.72;96.65;99459.14;435066;1253;107432;-40
2024/01/27 13:56:32;;;;;;;23.30;7.60;;;;;;;1.75;97.27;99488.00;435133;1257;95569;-38
2024/01/27 14:06:39;;;;;;;12.60;7.40;;;;;;;1.89;97.70;99493.14;434970;1259;107954;-40
2024/01/27 14:16:47;;;;;;;28.00;8.70;;;;;;;2.05;98.00;99499.96;435169;1255;96153;-39
2024/01/27 14:26:52;;;;;;;25.40;11.80;;;;;;;2.22;98.14;99515.46;435199;1253;109062;-39
2024/01/27 14:36:55;;;;;;;36.70;13.80;;;;;;;2.31;98.58;99532.83;435379;1255;107353;-39
2024/01/27 14:47:05;;;;;;;13.40;7.30;;;;;;;2.37;98.88;99545.47;435271;1256;96517;-39
2024/01/27 14:57:12;;;;;;;18.90;6.50;;;;;;;2.39;98.73;99565.39;435273;1256;109518;-39
2024/01/27 15:07:17;;;;;;;32.60;9.80;;;;;;;2.43;98.74;99588.31;435051;1255;109634;-40
2024/01/27 15:17:21;;;;;;;25.30;11.50;;;;;;;2.44;98.69;99607.34;435253;1254;96859;-40
2024/01/27 15:37:30;;;;;;;31.20;15.50;;;;;;;2.44;98.59;99635.23;435297;1255;108332;-40
2024/01/27 15:47:32;;;;;;;29.10;12.50;;;;;;;2.38;98.74;99648.17;437062;1255;96847;-39
2024/01/27 16:07:39;;;;;;;26.50;10.30;;;;;;;2.53;98.71;99675.74;435105;1253;108460;-39
2024/01/27 16:38:27;;;;;;;26.50;9.10;;;;;;;2.78;98.62;99730.36;435188;1256;108800;-40
2024/01/27 16:48:31;;;;;;;31.00;9.20;;;;;;;2.80;98.18;99749.12;435132;1255;96682;-39
2024/01/27 16:58:36;;;;;;;26.60;8.70;;;;;;;2.86;97.60;99767.04;435246;1264;108801;-38
2024/01/27 17:08:40;;;;;;;16.80;7.10;;;;;;;2.88;96.89;99793.77;435138;1255;107092;-38
2024/01/27 17:18:47;;;;;;;25.00;9.10;;;;;;;2.83;96.27;99813.08;436582;1256;95496;-39
2024/01/27 17:28:50;;;;;;;18.00;8.10;;;;;;;2.73;95.88;99829.26;435253;1256;110021;-37
2024/01/27 17:38:54;;;;;;;28.00;8.70;;;;;;;2.65;95.54;99853.54;435169;1264;106894;-38
2024/01/27 17:48:58;;;;;;;23.70;9.70;;;;;;;2.60;95.38;99869.02;435231;1258;96259;-38
2024/01/27 17:59:02;;;;;;;21.50;7.30;;;;;;;2.55;95.10;99878.55;435162;1258;96045;-39
2024/01/27 18:19:11;;;;;;;28.00;8.10;;;;;;;2.47;94.85;99919.61;435253;1255;96213;-40
2024/01/27 18:49:28;;;;;;;30.90;10.80;;;;;;;2.24;94.48;99962.92;435205;1264;96264;-38
2024/01/27 19:09:35;;;;;;;40.60;13.50;;;;;;;2.03;94.47;99996.19;435151;1257;96211;-39
2024/01/27 19:19:39;;;;;;;29.10;13.60;;;;;;;2.03;94.35;100004.18;437548;1257;96657;-38
2024/01/27 19:39:46;;;;;;;38.20;12.10;;;;;;;1.87;94.37;100018.71;437606;1254;106563;-39
2024/01/27 19:59:55;;;;;;;24.60;6.90;;;;;;;1.94;94.54;100042.58;437381;1265;95989;-39
2024/01/27 20:10:00;;;;;;;33.50;7.80;;;;;;;2.00;94.38;100060.07;437304;1254;108065;-38
2024/01/27 20:20:04;;;;;;;31.70;11.00;;;;;;;1.88;94.19;100079.30;437165;1254;95292;-38
2024/01/27 20:30:09;;;;;;;32.30;9.30;;;;;;;1.78;94.17;100093.23;436419;1257;497684;-37
2024/01/27 20:40:12;;;;;;;37.30;11.90;;;;;;;1.74;94.00;100101.12;437550;1254;107875;-39
2024/01/27 20:50:16;;;;;;;32.80;13.30;;;;;;;1.69;94.06;100118.77;437960;1254;96123;-39
2024/01/27 21:00:19;;;;;;;41.10;12.20;;;;;;;1.67;94.25;100136.83;437634;1256;109402;-38
2024/01/27 21:20:30;;;;;;;27.00;8.60;;;;;;;1.54;94.12;100161.09;436622;1257;96671;-38
2024/01/27 21:30:37;;;;;;;25.90;9.00;;;;;;;1.55;94.18;100178.57;437495;1254;110298;-38
2024/01/27 21:40:41;;;;;;;21.00;8.90;;;;;;;1.61;94.29;100182.52;437111;1258;107900;-38
2024/01/27 21:50:45;;;;;;;28.90;7.60;;;;;;;1.71;94.63;100186.02;437022;1257;96399;-38
2024/01/27 22:00:49;;;;;;;17.60;6.70;;;;;;;1.79;94.64;100192.77;437580;1255;96768;-39
2024/01/27 22:10:53;;;;;;;24.90;8.30;;;;;;;1.94;94.52;100193.52;437664;1253;107440;-40
2024/01/27 22:20:57;;;;;;;23.40;8.00;;;;;;;2.07;94.68;100206.09;437422;1255;96072;-39
2024/01/27 22:31:00;;;;;;;33.80;8.50;;;;;;;2.14;94.79;100212.64;437034;1256;97000;-38
2024/01/27 22:41:04;;;;;;;27.60;10.10;;;;;;;2.09;94.76;100221.71;437151;1255;107298;-38
2024/01/27 22:51:07;;;;;;;28.60;9.40;;;;;;;2.10;94.53;100235.45;435643;1256;95897;-39
2024/01/27 23:01:11;;;;;;;23.60;9.20;;;;;;;2.15;94.57;100245.77;435167;1257;109900;-40
2024/01/27 23:21:19;;;;;;;34.60;10.80;;;;;;;2.19;94.82;100244.89;435124;1256;96546;-42
2024/01/27 23:41:30;;;;;;;46.50;22.00;;;;;;;2.19;94.92;100238.46;435198;1255;108446;-39
2024/01/27 23:51:34;;;;;;;47.40;15.80;;;;;;;2.29;95.13;100255.63;435165;1256;95693;-39
